sensor_id;sensor_type;location;lat;lon;timestamp;pressure;altitude;pressure_sealevel;temperature
31528;BMP280;10206;48.012;10.030;2023-04-30T00:01:15;94937.16;;;14.42
31528;BMP280;10206;48.012;10.030;2023-04-30T00:03:41;94945.16;;;14.38
31528;BMP280;10206;48.012;10.030;2023-04-30T00:06:07;94942.09;;;14.44
31528;BMP280;10206;48.012;10.030;2023-04-30T00:08:33;94953.56;;;14.10
31528;BMP280;10206;48.012;10.030;2023-04-30T00:11:00;94949.53;;;14.32
31528;BMP280;10206;48.012;10.030;2023-04-30T00:13:26;94955.81;;;14.44
31528;BMP280;10206;48.012;10.030;2023-04-30T00:15:52;94956.94;;;14.50
31528;BMP280;10206;48.012;10.030;2023-04-30T00:18:18;94952.97;;;14.32
31528;BMP280;10206;48.012;10.030;2023-04-30T00:20:44;94958.75;;;14.57
31528;BMP280;10206;48.012;10.030;2023-04-30T00:23:10;94959.19;;;14.33
31528;BMP280;10206;48.012;10.030;2023-04-30T00:25:36;94955.38;;;14.47
31528;BMP280;10206;48.012;10.030;2023-04-30T00:28:02;94954.97;;;14.41
31528;BMP280;10206;48.012;10.030;2023-04-30T00:30:28;94955.22;;;14.24
31528;BMP280;10206;48.012;10.030;2023-04-30T00:32:55;94956.84;;;14.39
31528;BMP280;10206;48.012;10.030;2023-04-30T00:35:21;94960.91;;;14.38
31528;BMP280;10206;48.012;10.030;2023-04-30T00:37:47;94960.69;;;14.03
31528;BMP280;10206;48.012;10.030;2023-04-30T00:40:13;94962.34;;;14.18
31528;BMP280;10206;48.012;10.030;2023-04-30T00:42:39;94959.81;;;14.52
31528;BMP280;10206;48.012;10.030;2023-04-30T00:45:06;94958.38;;;14.51
31528;BMP280;10206;48.012;10.030;2023-04-30T00:47:32;94955.28;;;14.15
31528;BMP280;10206;48.012;10.030;2023-04-30T00:49:59;94961.38;;;14.34
31528;BMP280;10206;48.012;10.030;2023-04-30T00:52:26;94960.25;;;13.97
31528;BMP280;10206;48.012;10.030;2023-04-30T00:54:52;94958.88;;;14.17
31528;BMP280;10206;48.012;10.030;2023-04-30T00:57:20;94960.00;;;14.24
31528;BMP280;10206;48.012;10.030;2023-04-30T00:59:46;94955.50;;;14.28
31528;BMP280;10206;48.012;10.030;2023-04-30T01:02:13;94954.38;;;14.22
31528;BMP280;10206;48.012;10.030;2023-04-30T01:04:39;94954.94;;;14.20
31528;BMP280;10206;48.012;10.030;2023-04-30T01:07:06;94953.56;;;14.10
31528;BMP280;10206;48.012;10.030;2023-04-30T01:09:32;94954.94;;;13.99
31528;BMP280;10206;48.012;10.030;2023-04-30T01:12:12;94959.19;;;14.12
31528;BMP280;10206;48.012;10.030;2023-04-30T01:20:09;94960.19;;;14.06
31528;BMP280;10206;48.012;10.030;2023-04-30T01:25:50;94954.53;;;14.14
31528;BMP280;10206;48.012;10.030;2023-04-30T01:28:18;94963.91;;;13.90
31528;BMP280;10206;48.012;10.030;2023-04-30T01:30:45;94963.97;;;13.80
31528;BMP280;10206;48.012;10.030;2023-04-30T01:33:12;94968.13;;;13.81
31528;BMP280;10206;48.012;10.030;2023-04-30T01:35:59;94970.56;;;13.77
31528;BMP280;10206;48.012;10.030;2023-04-30T01:39:27;94968.94;;;13.93
31528;BMP280;10206;48.012;10.030;2023-04-30T01:46:49;94956.81;;;13.47
31528;BMP280;10206;48.012;10.030;2023-04-30T01:52:22;94971.00;;;13.83
31528;BMP280;10206;48.012;10.030;2023-04-30T01:54:57;94963.63;;;13.86
31528;BMP280;10206;48.012;10.030;2023-04-30T01:57:31;94962.94;;;13.76
31528;BMP280;10206;48.012;10.030;2023-04-30T01:59:57;94959.72;;;13.49
31528;BMP280;10206;48.012;10.030;2023-04-30T02:02:23;94959.84;;;13.60
31528;BMP280;10206;48.012;10.030;2023-04-30T02:04:50;94956.16;;;13.27
31528;BMP280;10206;48.012;10.030;2023-04-30T02:07:53;94954.69;;;13.26
31528;BMP280;10206;48.012;10.030;2023-04-30T02:10:13;94947.50;;;13.31
31528;BMP280;10206;48.012;10.030;2023-04-30T02:12:40;94950.03;;;13.57
31528;BMP280;10206;48.012;10.030;2023-04-30T02:15:06;94947.09;;;13.24
31528;BMP280;10206;48.012;10.030;2023-04-30T02:17:33;94947.94;;;13.17
31528;BMP280;10206;48.012;10.030;2023-04-30T02:19:59;94945.06;;;13.15
31528;BMP280;10206;48.012;10.030;2023-04-30T02:22:26;94940.47;;;13.18
31528;BMP280;10206;48.012;10.030;2023-04-30T02:24:52;94939.16;;;13.19
31528;BMP280;10206;48.012;10.030;2023-04-30T02:27:21;94940.03;;;13.12
31528;BMP280;10206;48.012;10.030;2023-04-30T02:29:47;94945.94;;;13.08
31528;BMP280;10206;48.012;10.030;2023-04-30T02:32:14;94944.50;;;12.88
31528;BMP280;10206;48.012;10.030;2023-04-30T02:34:40;94945.81;;;13.16
31528;BMP280;10206;48.012;10.030;2023-04-30T02:37:07;94954.47;;;13.03
31528;BMP280;10206;48.012;10.030;2023-04-30T02:39:33;94938.72;;;13.13
31528;BMP280;10206;48.012;10.030;2023-04-30T02:41:59;94943.06;;;12.97
31528;BMP280;10206;48.012;10.030;2023-04-30T02:44:26;94945.25;;;12.98
31528;BMP280;10206;48.012;10.030;2023-04-30T02:46:52;94945.38;;;12.91
31528;BMP280;10206;48.012;10.030;2023-04-30T02:49:18;94940.31;;;12.87
31528;BMP280;10206;48.012;10.030;2023-04-30T02:51:44;94944.81;;;12.92
31528;BMP280;10206;48.012;10.030;2023-04-30T02:54:10;94940.47;;;12.89
31528;BMP280;10206;48.012;10.030;2023-04-30T02:56:36;94942.50;;;12.98
31528;BMP280;10206;48.012;10.030;2023-04-30T02:59:04;94941.06;;;12.59
31528;BMP280;10206;48.012;10.030;2023-04-30T03:01:30;94940.78;;;12.84
31528;BMP280;10206;48.012;10.030;2023-04-30T03:03:56;94938.03;;;12.74
31528;BMP280;10206;48.012;10.030;2023-04-30T03:06:23;94942.78;;;12.64
31528;BMP280;10206;48.012;10.030;2023-04-30T03:08:49;94936.72;;;12.75
31528;BMP280;10206;48.012;10.030;2023-04-30T03:11:15;94937.56;;;12.49
31528;BMP280;10206;48.012;10.030;2023-04-30T03:13:42;94939.16;;;12.62
31528;BMP280;10206;48.012;10.030;2023-04-30T03:16:08;94933.44;;;12.58
31528;BMP280;10206;48.012;10.030;2023-04-30T03:18:35;94930.69;;;12.67
31528;BMP280;10206;48.012;10.030;2023-04-30T03:21:02;94936.16;;;12.67
31528;BMP280;10206;48.012;10.030;2023-04-30T03:23:28;94941.19;;;12.61
31528;BMP280;10206;48.012;10.030;2023-04-30T03:25:54;94941.88;;;12.42
31528;BMP280;10206;48.012;10.030;2023-04-30T03:28:20;94945.34;;;12.43
31528;BMP280;10206;48.012;10.030;2023-04-30T03:30:46;94941.22;;;12.52
31528;BMP280;10206;48.012;10.030;2023-04-30T03:33:13;94932.53;;;12.45
31528;BMP280;10206;48.012;10.030;2023-04-30T03:35:39;94938.38;;;12.32
31528;BMP280;10206;48.012;10.030;2023-04-30T03:38:05;94940.75;;;12.45
31528;BMP280;10206;48.012;10.030;2023-04-30T03:40:31;94937.84;;;12.24
31528;BMP280;10206;48.012;10.030;2023-04-30T03:42:57;94938.56;;;12.25
31528;BMP280;10206;48.012;10.030;2023-04-30T03:45:23;94943.66;;;12.02
31528;BMP280;10206;48.012;10.030;2023-04-30T03:47:49;94945.72;;;12.20
31528;BMP280;10206;48.012;10.030;2023-04-30T03:50:17;94941.31;;;12.34
31528;BMP280;10206;48.012;10.030;2023-04-30T03:52:44;94947.22;;;12.31
31528;BMP280;10206;48.012;10.030;2023-04-30T03:55:10;94935.53;;;12.30
31528;BMP280;10206;48.012;10.030;2023-04-30T03:57:38;94928.94;;;12.43
31528;BMP280;10206;48.012;10.030;2023-04-30T04:00:07;94936.09;;;12.10
31528;BMP280;10206;48.012;10.030;2023-04-30T04:02:35;94931.91;;;12.18
31528;BMP280;10206;48.012;10.030;2023-04-30T04:05:02;94933.53;;;11.85
31528;BMP280;10206;48.012;10.030;2023-04-30T04:07:28;94939.81;;;12.14
31528;BMP280;10206;48.012;10.030;2023-04-30T04:09:54;94943.91;;;11.87
31528;BMP280;10206;48.012;10.030;2023-04-30T04:12:21;94947.56;;;12.08
31528;BMP280;10206;48.012;10.030;2023-04-30T04:14:47;94943.75;;;12.30
31528;BMP280;10206;48.012;10.030;2023-04-30T04:17:13;94950.38;;;12.37
31528;BMP280;10206;48.012;10.030;2023-04-30T04:19:39;94945.16;;;12.22
31528;BMP280;10206;48.012;10.030;2023-04-30T04:22:06;94952.13;;;12.42
31528;BMP280;10206;48.012;10.030;2023-04-30T04:24:32;94961.56;;;12.22
31528;BMP280;10206;48.012;10.030;2023-04-30T04:26:58;94953.66;;;12.26
31528;BMP280;10206;48.012;10.030;2023-04-30T04:29:27;94954.81;;;12.23
31528;BMP280;10206;48.012;10.030;2023-04-30T04:31:54;94954.06;;;12.13
31528;BMP280;10206;48.012;10.030;2023-04-30T04:34:21;94947.03;;;12.10
31528;BMP280;10206;48.012;10.030;2023-04-30T04:36:47;94948.19;;;12.26
31528;BMP280;10206;48.012;10.030;2023-04-30T04:39:13;94952.31;;;12.08
31528;BMP280;10206;48.012;10.030;2023-04-30T04:41:40;94959.00;;;12.24
31528;BMP280;10206;48.012;10.030;2023-04-30T04:44:06;94953.09;;;12.27
31528;BMP280;10206;48.012;10.030;2023-04-30T04:46:34;94957.28;;;12.28
31528;BMP280;10206;48.012;10.030;2023-04-30T04:49:03;94954.69;;;12.30
31528;BMP280;10206;48.012;10.030;2023-04-30T04:51:29;94950.31;;;12.08
31528;BMP280;10206;48.012;10.030;2023-04-30T04:53:57;94959.72;;;12.34
31528;BMP280;10206;48.012;10.030;2023-04-30T04:56:23;94957.44;;;12.49
31528;BMP280;10206;48.012;10.030;2023-04-30T04:58:49;94956.19;;;12.70
31528;BMP280;10206;48.012;10.030;2023-04-30T05:01:15;94960.50;;;12.63
31528;BMP280;10206;48.012;10.030;2023-04-30T05:03:41;94960.34;;;12.61
31528;BMP280;10206;48.012;10.030;2023-04-30T05:06:07;94956.50;;;12.09
31528;BMP280;10206;48.012;10.030;2023-04-30T05:08:33;94960.34;;;12.52
31528;BMP280;10206;48.012;10.030;2023-04-30T05:10:59;94951.56;;;12.72
31528;BMP280;10206;48.012;10.030;2023-04-30T05:13:25;94956.63;;;12.66
31528;BMP280;10206;48.012;10.030;2023-04-30T05:15:52;94955.00;;;12.54
31528;BMP280;10206;48.012;10.030;2023-04-30T05:18:19;94955.16;;;12.65
31528;BMP280;10206;48.012;10.030;2023-04-30T05:20:45;94957.75;;;12.82
31528;BMP280;10206;48.012;10.030;2023-04-30T05:23:11;94959.59;;;12.41
31528;BMP280;10206;48.012;10.030;2023-04-30T05:25:37;94968.16;;;12.84
31528;BMP280;10206;48.012;10.030;2023-04-30T05:28:03;94953.31;;;12.96
31528;BMP280;10206;48.012;10.030;2023-04-30T05:30:30;94962.38;;;13.08
31528;BMP280;10206;48.012;10.030;2023-04-30T05:32:57;94955.84;;;13.33
31528;BMP280;10206;48.012;10.030;2023-04-30T05:35:23;94961.75;;;13.29
31528;BMP280;10206;48.012;10.030;2023-04-30T05:37:49;94959.97;;;13.53
31528;BMP280;10206;48.012;10.030;2023-04-30T05:40:15;94958.19;;;13.07
31528;BMP280;10206;48.012;10.030;2023-04-30T05:42:42;94953.25;;;13.35
31528;BMP280;10206;48.012;10.030;2023-04-30T05:45:12;94955.25;;;13.44
31528;BMP280;10206;48.012;10.030;2023-04-30T05:47:39;94966.84;;;13.73
31528;BMP280;10206;48.012;10.030;2023-04-30T05:50:07;94964.84;;;13.64
31528;BMP280;10206;48.012;10.030;2023-04-30T05:52:33;94963.22;;;13.80
31528;BMP280;10206;48.012;10.030;2023-04-30T05:54:59;94961.59;;;14.17
31528;BMP280;10206;48.012;10.030;2023-04-30T05:57:25;94962.09;;;14.04
31528;BMP280;10206;48.012;10.030;2023-04-30T05:59:51;94964.50;;;14.61
31528;BMP280;10206;48.012;10.030;2023-04-30T06:02:19;94965.50;;;14.45
31528;BMP280;10206;48.012;10.030;2023-04-30T06:04:46;94961.28;;;14.23
31528;BMP280;10206;48.012;10.030;2023-04-30T06:07:12;94962.09;;;14.56
31528;BMP280;10206;48.012;10.030;2023-04-30T06:09:38;94958.63;;;14.03
31528;BMP280;10206;48.012;10.030;2023-04-30T06:12:04;94954.88;;;14.72
31528;BMP280;10206;48.012;10.030;2023-04-30T06:14:30;94966.59;;;14.30
31528;BMP280;10206;48.012;10.030;2023-04-30T06:16:57;94962.72;;;14.24
31528;BMP280;10206;48.012;10.030;2023-04-30T06:19:23;94968.88;;;14.34
31528;BMP280;10206;48.012;10.030;2023-04-30T06:21:49;94967.03;;;14.06
31528;BMP280;10206;48.012;10.030;2023-04-30T06:24:15;94960.06;;;13.14
31528;BMP280;10206;48.012;10.030;2023-04-30T06:26:41;94967.34;;;13.90
31528;BMP280;10206;48.012;10.030;2023-04-30T06:29:07;94971.47;;;13.70
31528;BMP280;10206;48.012;10.030;2023-04-30T06:31:33;94967.75;;;13.66
31528;BMP280;10206;48.012;10.030;2023-04-30T06:33:59;94965.97;;;13.80
31528;BMP280;10206;48.012;10.030;2023-04-30T06:36:25;94958.97;;;13.98
31528;BMP280;10206;48.012;10.030;2023-04-30T06:38:51;94963.31;;;13.91
31528;BMP280;10206;48.012;10.030;2023-04-30T06:41:17;94963.16;;;14.51
31528;BMP280;10206;48.012;10.030;2023-04-30T06:43:44;94968.56;;;14.60
31528;BMP280;10206;48.012;10.030;2023-04-30T06:46:10;94964.50;;;14.40
31528;BMP280;10206;48.012;10.030;2023-04-30T06:48:36;94970.53;;;15.02
31528;BMP280;10206;48.012;10.030;2023-04-30T06:51:02;94981.28;;;15.31
31528;BMP280;10206;48.012;10.030;2023-04-30T06:53:28;94983.19;;;15.28
31528;BMP280;10206;48.012;10.030;2023-04-30T06:55:54;94976.50;;;14.99
31528;BMP280;10206;48.012;10.030;2023-04-30T06:58:21;94976.44;;;14.87
31528;BMP280;10206;48.012;10.030;2023-04-30T07:00:47;94974.09;;;14.72
31528;BMP280;10206;48.012;10.030;2023-04-30T07:03:13;94972.03;;;15.15
31528;BMP280;10206;48.012;10.030;2023-04-30T07:05:39;94981.66;;;15.37
31528;BMP280;10206;48.012;10.030;2023-04-30T07:08:06;94968.13;;;14.97
31528;BMP280;10206;48.012;10.030;2023-04-30T07:10:32;94974.56;;;15.34
31528;BMP280;10206;48.012;10.030;2023-04-30T07:12:58;94967.47;;;15.63
31528;BMP280;10206;48.012;10.030;2023-04-30T07:15:25;94971.03;;;15.43
31528;BMP280;10206;48.012;10.030;2023-04-30T07:17:51;94962.66;;;15.41
31528;BMP280;10206;48.012;10.030;2023-04-30T07:20:17;94952.34;;;14.22
31528;BMP280;10206;48.012;10.030;2023-04-30T07:22:43;94965.41;;;15.41
31528;BMP280;10206;48.012;10.030;2023-04-30T07:25:11;94959.44;;;15.56
31528;BMP280;10206;48.012;10.030;2023-04-30T07:27:38;94956.59;;;15.54
31528;BMP280;10206;48.012;10.030;2023-04-30T07:30:06;94956.63;;;15.21
31528;BMP280;10206;48.012;10.030;2023-04-30T07:32:34;94965.22;;;15.60
31528;BMP280;10206;48.012;10.030;2023-04-30T07:35:00;94960.38;;;15.49
31528;BMP280;10206;48.012;10.030;2023-04-30T07:37:26;94961.25;;;15.63
31528;BMP280;10206;48.012;10.030;2023-04-30T07:39:52;94957.38;;;15.33
31528;BMP280;10206;48.012;10.030;2023-04-30T07:42:18;94962.69;;;15.08
31528;BMP280;10206;48.012;10.030;2023-04-30T07:44:44;94959.69;;;15.04
31528;BMP280;10206;48.012;10.030;2023-04-30T07:47:11;94965.97;;;15.28
31528;BMP280;10206;48.012;10.030;2023-04-30T07:49:37;94959.34;;;15.54
31528;BMP280;10206;48.012;10.030;2023-04-30T07:52:03;94960.78;;;15.66
31528;BMP280;10206;48.012;10.030;2023-04-30T07:54:30;94961.22;;;16.32
31528;BMP280;10206;48.012;10.030;2023-04-30T07:56:56;94956.66;;;16.37
31528;BMP280;10206;48.012;10.030;2023-04-30T07:59:22;94949.91;;;16.88
31528;BMP280;10206;48.012;10.030;2023-04-30T08:01:50;94955.53;;;16.90
31528;BMP280;10206;48.012;10.030;2023-04-30T08:04:16;94961.22;;;16.21
31528;BMP280;10206;48.012;10.030;2023-04-30T08:06:42;94966.75;;;15.98
31528;BMP280;10206;48.012;10.030;2023-04-30T08:09:08;94963.47;;;16.47
31528;BMP280;10206;48.012;10.030;2023-04-30T08:11:34;94958.03;;;16.01
31528;BMP280;10206;48.012;10.030;2023-04-30T08:14:00;94965.31;;;16.68
31528;BMP280;10206;48.012;10.030;2023-04-30T08:16:26;94967.00;;;16.62
31528;BMP280;10206;48.012;10.030;2023-04-30T08:18:52;94963.75;;;16.17
31528;BMP280;10206;48.012;10.030;2023-04-30T08:21:19;94958.78;;;16.50
31528;BMP280;10206;48.012;10.030;2023-04-30T08:23:46;94957.66;;;16.67
31528;BMP280;10206;48.012;10.030;2023-04-30T08:26:12;94957.59;;;17.28
31528;BMP280;10206;48.012;10.030;2023-04-30T08:28:38;94956.84;;;17.80
31528;BMP280;10206;48.012;10.030;2023-04-30T08:31:04;94961.13;;;17.17
31528;BMP280;10206;48.012;10.030;2023-04-30T08:33:30;94957.22;;;16.84
31528;BMP280;10206;48.012;10.030;2023-04-30T08:35:56;94951.94;;;17.13
31528;BMP280;10206;48.012;10.030;2023-04-30T08:38:24;94950.00;;;17.40
31528;BMP280;10206;48.012;10.030;2023-04-30T08:41:17;94954.34;;;17.07
31528;BMP280;10206;48.012;10.030;2023-04-30T08:43:45;94963.34;;;16.82
31528;BMP280;10206;48.012;10.030;2023-04-30T08:46:14;94950.84;;;16.93
31528;BMP280;10206;48.012;10.030;2023-04-30T08:48:42;94953.59;;;16.93
31528;BMP280;10206;48.012;10.030;2023-04-30T08:51:09;94952.88;;;17.17
31528;BMP280;10206;48.012;10.030;2023-04-30T08:53:36;94957.56;;;17.67
31528;BMP280;10206;48.012;10.030;2023-04-30T08:56:04;94956.44;;;17.59
31528;BMP280;10206;48.012;10.030;2023-04-30T08:58:30;94947.25;;;18.22
31528;BMP280;10206;48.012;10.030;2023-04-30T09:01:00;94954.03;;;18.62
31528;BMP280;10206;48.012;10.030;2023-04-30T09:03:26;94945.06;;;19.06
31528;BMP280;10206;48.012;10.030;2023-04-30T09:05:53;94947.22;;;19.23
31528;BMP280;10206;48.012;10.030;2023-04-30T09:08:46;94939.78;;;18.67
31528;BMP280;10206;48.012;10.030;2023-04-30T09:11:27;94936.53;;;18.57
31528;BMP280;10206;48.012;10.030;2023-04-30T09:13:56;94941.50;;;18.45
31528;BMP280;10206;48.012;10.030;2023-04-30T09:16:23;94939.19;;;18.55
31528;BMP280;10206;48.012;10.030;2023-04-30T09:18:50;94936.72;;;18.18
31528;BMP280;10206;48.012;10.030;2023-04-30T09:21:27;94948.34;;;18.73
31528;BMP280;10206;48.012;10.030;2023-04-30T09:23:58;94937.63;;;18.23
31528;BMP280;10206;48.012;10.030;2023-04-30T09:26:44;94936.91;;;18.36
31528;BMP280;10206;48.012;10.030;2023-04-30T09:29:12;94932.97;;;18.55
31528;BMP280;10206;48.012;10.030;2023-04-30T09:31:41;94938.50;;;18.84
31528;BMP280;10206;48.012;10.030;2023-04-30T09:34:07;94935.41;;;18.62
31528;BMP280;10206;48.012;10.030;2023-04-30T09:36:33;94943.63;;;19.05
31528;BMP280;10206;48.012;10.030;2023-04-30T09:39:10;94936.91;;;19.39
31528;BMP280;10206;48.012;10.030;2023-04-30T09:41:42;94934.03;;;19.37
31528;BMP280;10206;48.012;10.030;2023-04-30T09:44:30;94930.44;;;19.19
31528;BMP280;10206;48.012;10.030;2023-04-30T09:46:56;94944.59;;;18.37
31528;BMP280;10206;48.012;10.030;2023-04-30T09:49:26;94941.31;;;18.70
31528;BMP280;10206;48.012;10.030;2023-04-30T09:52:00;94943.28;;;18.68
31528;BMP280;10206;48.012;10.030;2023-04-30T09:54:28;94938.34;;;18.23
31528;BMP280;10206;48.012;10.030;2023-04-30T09:56:59;94941.63;;;18.20
31528;BMP280;10206;48.012;10.030;2023-04-30T09:59:32;94936.63;;;18.16
31528;BMP280;10206;48.012;10.030;2023-04-30T10:02:01;94930.09;;;18.10
31528;BMP280;10206;48.012;10.030;2023-04-30T10:04:33;94943.09;;;18.07
31528;BMP280;10206;48.012;10.030;2023-04-30T10:07:14;94924.81;;;18.86
31528;BMP280;10206;48.012;10.030;2023-04-30T10:09:49;94925.91;;;19.25
31528;BMP280;10206;48.012;10.030;2023-04-30T10:12:21;94925.44;;;18.71
31528;BMP280;10206;48.012;10.030;2023-04-30T10:14:56;94924.72;;;18.99
31528;BMP280;10206;48.012;10.030;2023-04-30T10:17:27;94925.88;;;18.65
31528;BMP280;10206;48.012;10.030;2023-04-30T10:20:01;94930.09;;;18.95
31528;BMP280;10206;48.012;10.030;2023-04-30T10:22:30;94929.50;;;19.92
31528;BMP280;10206;48.012;10.030;2023-04-30T10:24:58;94913.78;;;19.17
31528;BMP280;10206;48.012;10.030;2023-04-30T10:27:24;94915.34;;;18.62
31528;BMP280;10206;48.012;10.030;2023-04-30T10:29:50;94931.34;;;18.79
31528;BMP280;10206;48.012;10.030;2023-04-30T10:32:17;94915.25;;;19.04
31528;BMP280;10206;48.012;10.030;2023-04-30T10:35:09;94920.53;;;18.69
31528;BMP280;10206;48.012;10.030;2023-04-30T10:37:45;94917.78;;;18.98
31528;BMP280;10206;48.012;10.030;2023-04-30T10:40:13;94922.25;;;19.21
31528;BMP280;10206;48.012;10.030;2023-04-30T10:42:47;94917.16;;;19.31
31528;BMP280;10206;48.012;10.030;2023-04-30T10:45:15;94910.66;;;19.40
31528;BMP280;10206;48.012;10.030;2023-04-30T10:47:43;94915.91;;;19.65
31528;BMP280;10206;48.012;10.030;2023-04-30T10:50:12;94923.81;;;19.73
31528;BMP280;10206;48.012;10.030;2023-04-30T10:52:38;94917.00;;;19.11
31528;BMP280;10206;48.012;10.030;2023-04-30T10:55:06;94912.09;;;18.81
31528;BMP280;10206;48.012;10.030;2023-04-30T10:57:40;94916.41;;;19.15
31528;BMP280;10206;48.012;10.030;2023-04-30T11:02:45;94915.09;;;19.16
31528;BMP280;10206;48.012;10.030;2023-04-30T11:05:13;94910.84;;;18.84
31528;BMP280;10206;48.012;10.030;2023-04-30T11:07:51;94901.59;;;18.93
31528;BMP280;10206;48.012;10.030;2023-04-30T11:10:55;94912.09;;;18.81
31528;BMP280;10206;48.012;10.030;2023-04-30T11:13:21;94916.09;;;18.78
31528;BMP280;10206;48.012;10.030;2023-04-30T11:15:47;94901.72;;;18.95
31528;BMP280;10206;48.012;10.030;2023-04-30T11:18:14;94899.22;;;19.32
31528;BMP280;10206;48.012;10.030;2023-04-30T11:20:47;94889.38;;;18.82
31528;BMP280;10206;48.012;10.030;2023-04-30T11:23:15;94894.28;;;18.55
31528;BMP280;10206;48.012;10.030;2023-04-30T11:25:46;94893.72;;;18.72
31528;BMP280;10206;48.012;10.030;2023-04-30T11:28:23;94883.50;;;18.90
31528;BMP280;10206;48.012;10.030;2023-04-30T11:30:56;94882.34;;;19.42
31528;BMP280;10206;48.012;10.030;2023-04-30T11:33:24;94890.59;;;19.24
31528;BMP280;10206;48.012;10.030;2023-04-30T11:35:52;94886.50;;;18.80
31528;BMP280;10206;48.012;10.030;2023-04-30T11:38:30;94887.25;;;19.12
31528;BMP280;10206;48.012;10.030;2023-04-30T11:40:57;94874.72;;;18.35
31528;BMP280;10206;48.012;10.030;2023-04-30T11:43:25;94888.50;;;19.09
31528;BMP280;10206;48.012;10.030;2023-04-30T11:46:18;94867.81;;;19.10
31528;BMP280;10206;48.012;10.030;2023-04-30T11:48:45;94876.19;;;18.96
31528;BMP280;10206;48.012;10.030;2023-04-30T11:51:21;94877.63;;;18.97
31528;BMP280;10206;48.012;10.030;2023-04-30T11:53:52;94873.78;;;18.89
31528;BMP280;10206;48.012;10.030;2023-04-30T11:56:22;94864.94;;;18.48
31528;BMP280;10206;48.012;10.030;2023-04-30T11:58:52;94875.53;;;18.82
31528;BMP280;10206;48.012;10.030;2023-04-30T12:01:20;94864.25;;;19.23
31528;BMP280;10206;48.012;10.030;2023-04-30T12:03:50;94864.44;;;19.27
31528;BMP280;10206;48.012;10.030;2023-04-30T12:06:24;94864.75;;;18.73
31528;BMP280;10206;48.012;10.030;2023-04-30T12:08:52;94857.69;;;19.63
31528;BMP280;10206;48.012;10.030;2023-04-30T12:11:20;94845.88;;;19.78
31528;BMP280;10206;48.012;10.030;2023-04-30T12:13:59;94863.00;;;19.75
31528;BMP280;10206;48.012;10.030;2023-04-30T12:16:37;94860.13;;;18.93
31528;BMP280;10206;48.012;10.030;2023-04-30T12:19:03;94844.78;;;19.85
31528;BMP280;10206;48.012;10.030;2023-04-30T12:21:29;94846.59;;;19.63
31528;BMP280;10206;48.012;10.030;2023-04-30T12:23:56;94842.25;;;19.58
31528;BMP280;10206;48.012;10.030;2023-04-30T12:26:22;94857.25;;;19.53
31528;BMP280;10206;48.012;10.030;2023-04-30T12:28:49;94837.06;;;19.66
31528;BMP280;10206;48.012;10.030;2023-04-30T12:31:18;94840.78;;;20.23
31528;BMP280;10206;48.012;10.030;2023-04-30T12:33:53;94852.41;;;19.54
31528;BMP280;10206;48.012;10.030;2023-04-30T12:36:20;94846.75;;;19.03
31528;BMP280;10206;48.012;10.030;2023-04-30T12:38:46;94846.88;;;19.20
31528;BMP280;10206;48.012;10.030;2023-04-30T12:41:12;94840.09;;;19.57
31528;BMP280;10206;48.012;10.030;2023-04-30T12:43:40;94838.19;;;19.28
31528;BMP280;10206;48.012;10.030;2023-04-30T12:46:06;94838.88;;;19.44
31528;BMP280;10206;48.012;10.030;2023-04-30T12:48:43;94844.78;;;19.05
31528;BMP280;10206;48.012;10.030;2023-04-30T12:51:18;94847.41;;;18.86
31528;BMP280;10206;48.012;10.030;2023-04-30T12:53:45;94850.50;;;19.25
31528;BMP280;10206;48.012;10.030;2023-04-30T12:56:17;94839.91;;;19.68
31528;BMP280;10206;48.012;10.030;2023-04-30T12:58:45;94837.63;;;19.47
31528;BMP280;10206;48.012;10.030;2023-04-30T13:01:16;94827.38;;;19.83
31528;BMP280;10206;48.012;10.030;2023-04-30T13:03:42;94831.31;;;19.78
31528;BMP280;10206;48.012;10.030;2023-04-30T13:06:08;94826.75;;;20.37
31528;BMP280;10206;48.012;10.030;2023-04-30T13:08:35;94820.03;;;20.07
31528;BMP280;10206;48.012;10.030;2023-04-30T13:11:01;94816.94;;;20.34
31528;BMP280;10206;48.012;10.030;2023-04-30T13:13:28;94806.22;;;19.56
31528;BMP280;10206;48.012;10.030;2023-04-30T13:15:54;94810.91;;;19.20
31528;BMP280;10206;48.012;10.030;2023-04-30T13:18:21;94811.50;;;19.68
31528;BMP280;10206;48.012;10.030;2023-04-30T13:20:47;94809.91;;;19.29
31528;BMP280;10206;48.012;10.030;2023-04-30T13:23:13;94805.56;;;18.93
31528;BMP280;10206;48.012;10.030;2023-04-30T13:25:40;94814.00;;;19.77
31528;BMP280;10206;48.012;10.030;2023-04-30T13:28:06;94819.25;;;19.38
31528;BMP280;10206;48.012;10.030;2023-04-30T13:30:33;94813.19;;;19.42
31528;BMP280;10206;48.012;10.030;2023-04-30T13:32:59;94811.75;;;19.56
31528;BMP280;10206;48.012;10.030;2023-04-30T13:35:25;94809.91;;;19.78
31528;BMP280;10206;48.012;10.030;2023-04-30T13:37:52;94814.88;;;19.99
31528;BMP280;10206;48.012;10.030;2023-04-30T13:40:19;94813.72;;;19.71
31528;BMP280;10206;48.012;10.030;2023-04-30T13:42:46;94820.78;;;19.74
31528;BMP280;10206;48.012;10.030;2023-04-30T13:45:13;94827.13;;;19.28
31528;BMP280;10206;48.012;10.030;2023-04-30T13:47:40;94816.88;;;19.64
31528;BMP280;10206;48.012;10.030;2023-04-30T13:50:06;94815.00;;;19.68
31528;BMP280;10206;48.012;10.030;2023-04-30T13:52:35;94801.09;;;19.84
31528;BMP280;10206;48.012;10.030;2023-04-30T13:55:02;94799.91;;;19.22
31528;BMP280;10206;48.012;10.030;2023-04-30T13:57:29;94799.03;;;19.18
31528;BMP280;10206;48.012;10.030;2023-04-30T13:59:57;94797.66;;;19.68
31528;BMP280;10206;48.012;10.030;2023-04-30T14:02:24;94794.69;;;19.13
31528;BMP280;10206;48.012;10.030;2023-04-30T14:04:50;94792.78;;;19.66
31528;BMP280;10206;48.012;10.030;2023-04-30T14:07:16;94788.59;;;19.01
31528;BMP280;10206;48.012;10.030;2023-04-30T14:09:43;94788.31;;;19.26
31528;BMP280;10206;48.012;10.030;2023-04-30T14:12:09;94777.31;;;19.28
31528;BMP280;10206;48.012;10.030;2023-04-30T14:14:35;94794.56;;;19.26
31528;BMP280;10206;48.012;10.030;2023-04-30T14:17:01;94797.00;;;19.03
31528;BMP280;10206;48.012;10.030;2023-04-30T14:19:29;94795.22;;;18.94
31528;BMP280;10206;48.012;10.030;2023-04-30T14:21:55;94786.00;;;18.74